sensor_id;sensor_type;location;lat;lon;timestamp;P1;durP1;ratioP1;P2;durP2;ratioP2
40815;SDS011;26535;48.788;9.214;2023-06-22T00:00:52;10.00;;;7.13;;
40815;SDS011;26535;48.788;9.214;2023-06-22T05:02:10;14.88;;;8.35;;
40815;SDS011;26535;48.788;9.214;2023-06-22T05:04:36;15.75;;;8.85;;
40815;SDS011;26535;48.788;9.214;2023-06-22T05:07:03;12.90;;;7.80;;
40815;SDS011;26535;48.788;9.214;2023-06-22T05:09:29;12.45;;;8.55;;
40815;SDS011;26535;48.788;9.214;2023-06-22T05:11:55;11.75;;;7.78;;
40815;SDS011;26535;48.788;9.214;2023-06-22T05:14:21;11.95;;;8.00;;
40815;SDS011;26535;48.788;9.214;2023-06-22T05:16:47;11.02;;;7.53;;
40815;SDS011;26535;48.788;9.214;2023-06-22T05:19:14;15.00;;;7.63;;
40815;SDS011;26535;48.788;9.214;2023-06-22T05:21:40;9.80;;;6.97;;
40815;SDS011;26535;48.788;9.214;2023-06-22T05:24:06;10.70;;;6.85;;
40815;SDS011;26535;48.788;9.214;2023-06-22T05:26:32;11.25;;;7.28;;
40815;SDS011;26535;48.788;9.214;2023-06-22T05:28:59;10.82;;;6.25;;
40815;SDS011;26535;48.788;9.214;2023-06-22T05:31:26;10.48;;;6.70;;
40815;SDS011;26535;48.788;9.214;2023-06-22T05:33:52;7.63;;;5.60;;
40815;SDS011;26535;48.788;9.214;2023-06-22T05:36:19;13.15;;;6.53;;
40815;SDS011;26535;48.788;9.214;2023-06-22T05:38:46;13.45;;;6.40;;
40815;SDS011;26535;48.788;9.214;2023-06-22T05:41:12;10.73;;;6.22;;
40815;SDS011;26535;48.788;9.214;2023-06-22T05:43:39;11.38;;;6.55;;
40815;SDS011;26535;48.788;9.214;2023-06-22T05:46:05;9.13;;;6.43;;
40815;SDS011;26535;48.788;9.214;2023-06-22T05:48:31;10.23;;;6.75;;
40815;SDS011;26535;48.788;9.214;2023-06-22T05:50:56;10.23;;;6.63;;
40815;SDS011;26535;48.788;9.214;2023-06-22T05:53:22;9.45;;;6.20;;
40815;SDS011;26535;48.788;9.214;2023-06-22T05:55:48;11.85;;;5.47;;
40815;SDS011;26535;48.788;9.214;2023-06-22T05:58:14;12.77;;;6.43;;
40815;SDS011;26535;48.788;9.214;2023-06-22T06:00:40;9.90;;;5.60;;
40815;SDS011;26535;48.788;9.214;2023-06-22T06:03:06;10.73;;;6.00;;
40815;SDS011;26535;48.788;9.214;2023-06-22T06:05:33;9.98;;;5.85;;
40815;SDS011;26535;48.788;9.214;2023-06-22T06:08:00;10.82;;;5.55;;
40815;SDS011;26535;48.788;9.214;2023-06-22T06:10:26;8.55;;;5.28;;
40815;SDS011;26535;48.788;9.214;2023-06-22T06:15:20;10.40;;;6.55;;
40815;SDS011;26535;48.788;9.214;2023-06-22T06:17:55;12.65;;;6.32;;
40815;SDS011;26535;48.788;9.214;2023-06-22T06:20:22;9.40;;;5.45;;
40815;SDS011;26535;48.788;9.214;2023-06-22T06:22:49;10.27;;;6.15;;
40815;SDS011;26535;48.788;9.214;2023-06-22T06:25:15;10.93;;;5.90;;
40815;SDS011;26535;48.788;9.214;2023-06-22T06:27:49;12.15;;;6.47;;
40815;SDS011;26535;48.788;9.214;2023-06-22T06:30:17;11.20;;;6.00;;
40815;SDS011;26535;48.788;9.214;2023-06-22T06:32:45;9.15;;;5.75;;
40815;SDS011;26535;48.788;9.214;2023-06-22T06:35:11;9.88;;;5.53;;
40815;SDS011;26535;48.788;9.214;2023-06-22T06:37:39;10.15;;;5.65;;
40815;SDS011;26535;48.788;9.214;2023-06-22T06:40:07;9.95;;;5.38;;
40815;SDS011;26535;48.788;9.214;2023-06-22T06:42:39;9.10;;;5.00;;
40815;SDS011;26535;48.788;9.214;2023-06-22T06:45:07;11.57;;;6.25;;
40815;SDS011;26535;48.788;9.214;2023-06-22T06:47:33;10.48;;;5.85;;
40815;SDS011;26535;48.788;9.214;2023-06-22T06:49:59;12.25;;;5.50;;
40815;SDS011;26535;48.788;9.214;2023-06-22T06:52:25;10.40;;;5.35;;
40815;SDS011;26535;48.788;9.214;2023-06-22T06:54:51;7.28;;;5.18;;
40815;SDS011;26535;48.788;9.214;2023-06-22T06:57:20;8.50;;;5.20;;
40815;SDS011;26535;48.788;9.214;2023-06-22T06:59:46;7.78;;;5.05;;
40815;SDS011;26535;48.788;9.214;2023-06-22T07:02:11;8.30;;;4.93;;
40815;SDS011;26535;48.788;9.214;2023-06-22T07:04:37;9.07;;;4.90;;
40815;SDS011;26535;48.788;9.214;2023-06-22T07:07:03;8.25;;;4.97;;
40815;SDS011;26535;48.788;9.214;2023-06-22T07:09:29;7.05;;;4.55;;
40815;SDS011;26535;48.788;9.214;2023-06-22T07:11:54;11.90;;;7.35;;
40815;SDS011;26535;48.788;9.214;2023-06-22T07:14:20;9.30;;;5.53;;
40815;SDS011;26535;48.788;9.214;2023-06-22T07:16:46;10.20;;;4.97;;
40815;SDS011;26535;48.788;9.214;2023-06-22T07:19:12;11.10;;;5.20;;
40815;SDS011;26535;48.788;9.214;2023-06-22T07:21:38;7.90;;;5.25;;
40815;SDS011;26535;48.788;9.214;2023-06-22T07:24:07;7.53;;;4.68;;
40815;SDS011;26535;48.788;9.214;2023-06-22T07:26:33;7.72;;;4.90;;
40815;SDS011;26535;48.788;9.214;2023-06-22T07:28:59;9.13;;;5.00;;
40815;SDS011;26535;48.788;9.214;2023-06-22T07:31:25;9.50;;;5.05;;
40815;SDS011;26535;48.788;9.214;2023-06-22T07:33:51;10.95;;;5.43;;
40815;SDS011;26535;48.788;9.214;2023-06-22T07:36:17;9.85;;;4.60;;
40815;SDS011;26535;48.788;9.214;2023-06-22T07:38:43;12.70;;;7.85;;
40815;SDS011;26535;48.788;9.214;2023-06-22T07:41:09;8.45;;;4.63;;
40815;SDS011;26535;48.788;9.214;2023-06-22T07:43:34;8.60;;;4.45;;
40815;SDS011;26535;48.788;9.214;2023-06-22T07:46:05;8.02;;;4.40;;
40815;SDS011;26535;48.788;9.214;2023-06-22T07:48:30;7.03;;;4.75;;
40815;SDS011;26535;48.788;9.214;2023-06-22T07:50:56;6.78;;;3.92;;
40815;SDS011;26535;48.788;9.214;2023-06-22T07:53:22;7.65;;;4.25;;
40815;SDS011;26535;48.788;9.214;2023-06-22T07:55:49;8.38;;;4.35;;
40815;SDS011;26535;48.788;9.214;2023-06-22T07:58:15;11.95;;;4.90;;
40815;SDS011;26535;48.788;9.214;2023-06-22T08:00:41;8.80;;;4.38;;
40815;SDS011;26535;48.788;9.214;2023-06-22T08:03:07;7.15;;;4.07;;
40815;SDS011;26535;48.788;9.214;2023-06-22T08:05:32;6.97;;;4.10;;
40815;SDS011;26535;48.788;9.214;2023-06-22T08:07:58;8.05;;;4.13;;
40815;SDS011;26535;48.788;9.214;2023-06-22T08:10:24;8.38;;;4.97;;
40815;SDS011;26535;48.788;9.214;2023-06-22T08:12:51;8.50;;;4.70;;
40815;SDS011;26535;48.788;9.214;2023-06-22T08:15:17;9.02;;;4.47;;
40815;SDS011;26535;48.788;9.214;2023-06-22T08:17:44;7.90;;;4.63;;
40815;SDS011;26535;48.788;9.214;2023-06-22T08:20:11;6.40;;;4.43;;
40815;SDS011;26535;48.788;9.214;2023-06-22T08:22:37;8.57;;;4.35;;
40815;SDS011;26535;48.788;9.214;2023-06-22T08:25:04;7.28;;;3.97;;
40815;SDS011;26535;48.788;9.214;2023-06-22T08:27:31;9.85;;;3.92;;
40815;SDS011;26535;48.788;9.214;2023-06-22T08:29:57;7.00;;;4.20;;
40815;SDS011;26535;48.788;9.214;2023-06-22T08:32:27;8.07;;;4.03;;
40815;SDS011;26535;48.788;9.214;2023-06-22T08:34:56;8.20;;;3.90;;
40815;SDS011;26535;48.788;9.214;2023-06-22T08:37:23;8.25;;;4.65;;
40815;SDS011;26535;48.788;9.214;2023-06-22T08:39:50;5.70;;;3.97;;
40815;SDS011;26535;48.788;9.214;2023-06-22T08:42:16;9.43;;;4.40;;
40815;SDS011;26535;48.788;9.214;2023-06-22T08:44:47;7.95;;;3.95;;
40815;SDS011;26535;48.788;9.214;2023-06-22T08:47:13;7.63;;;4.50;;
40815;SDS011;26535;48.788;9.214;2023-06-22T08:49:39;8.73;;;4.45;;
40815;SDS011;26535;48.788;9.214;2023-06-22T08:52:05;7.45;;;4.20;;
40815;SDS011;26535;48.788;9.214;2023-06-22T08:54:31;14.70;;;4.82;;
40815;SDS011;26535;48.788;9.214;2023-06-22T08:56:58;8.77;;;4.40;;
40815;SDS011;26535;48.788;9.214;2023-06-22T08:59:24;11.40;;;6.13;;
40815;SDS011;26535;48.788;9.214;2023-06-22T09:01:49;8.85;;;4.40;;
40815;SDS011;26535;48.788;9.214;2023-06-22T09:04:15;10.73;;;4.25;;
40815;SDS011;26535;48.788;9.214;2023-06-22T09:06:41;7.38;;;3.83;;
40815;SDS011;26535;48.788;9.214;2023-06-22T09:09:12;7.47;;;4.25;;
40815;SDS011;26535;48.788;9.214;2023-06-22T09:11:38;8.43;;;4.00;;
40815;SDS011;26535;48.788;9.214;2023-06-22T09:14:04;6.63;;;3.78;;
40815;SDS011;26535;48.788;9.214;2023-06-22T09:16:30;9.00;;;4.18;;
40815;SDS011;26535;48.788;9.214;2023-06-22T09:18:56;7.78;;;3.58;;
40815;SDS011;26535;48.788;9.214;2023-06-22T09:21:21;7.63;;;4.20;;
40815;SDS011;26535;48.788;9.214;2023-06-22T09:23:48;8.90;;;3.90;;
40815;SDS011;26535;48.788;9.214;2023-06-22T09:26:19;10.27;;;4.15;;
40815;SDS011;26535;48.788;9.214;2023-06-22T09:28:45;8.80;;;4.22;;
40815;SDS011;26535;48.788;9.214;2023-06-22T09:31:10;12.18;;;3.83;;
40815;SDS011;26535;48.788;9.214;2023-06-22T09:33:36;8.45;;;3.97;;
40815;SDS011;26535;48.788;9.214;2023-06-22T09:36:05;8.70;;;4.22;;
40815;SDS011;26535;48.788;9.214;2023-06-22T09:38:35;12.77;;;4.63;;
40815;SDS011;26535;48.788;9.214;2023-06-22T09:41:01;9.02;;;4.30;;
40815;SDS011;26535;48.788;9.214;2023-06-22T09:43:27;11.32;;;4.28;;
40815;SDS011;26535;48.788;9.214;2023-06-22T09:45:53;10.07;;;3.90;;
40815;SDS011;26535;48.788;9.214;2023-06-22T09:48:18;10.18;;;4.22;;
40815;SDS011;26535;48.788;9.214;2023-06-22T09:50:44;9.50;;;4.20;;
40815;SDS011;26535;48.788;9.214;2023-06-22T09:53:10;6.80;;;3.92;;
40815;SDS011;26535;48.788;9.214;2023-06-22T09:55:36;9.68;;;4.57;;
40815;SDS011;26535;48.788;9.214;2023-06-22T09:58:01;8.52;;;3.92;;
40815;SDS011;26535;48.788;9.214;2023-06-22T10:00:27;8.77;;;4.30;;
40815;SDS011;26535;48.788;9.214;2023-06-22T10:02:53;9.23;;;4.65;;
40815;SDS011;26535;48.788;9.214;2023-06-22T10:05:21;15.43;;;9.50;;
40815;SDS011;26535;48.788;9.214;2023-06-22T10:07:47;15.15;;;8.27;;
40815;SDS011;26535;48.788;9.214;2023-06-22T10:10:13;9.10;;;4.70;;
40815;SDS011;26535;48.788;9.214;2023-06-22T10:12:42;9.05;;;4.40;;
40815;SDS011;26535;48.788;9.214;2023-06-22T10:15:12;10.90;;;4.50;;
40815;SDS011;26535;48.788;9.214;2023-06-22T10:17:38;11.07;;;4.15;;
40815;SDS011;26535;48.788;9.214;2023-06-22T10:20:05;11.40;;;4.28;;
40815;SDS011;26535;48.788;9.214;2023-06-22T10:22:36;13.15;;;5.10;;
40815;SDS011;26535;48.788;9.214;2023-06-22T10:25:06;9.77;;;5.00;;
40815;SDS011;26535;48.788;9.214;2023-06-22T10:27:32;13.73;;;4.90;;
40815;SDS011;26535;48.788;9.214;2023-06-22T10:29:58;9.23;;;4.70;;
40815;SDS011;26535;48.788;9.214;2023-06-22T10:32:24;12.65;;;4.75;;
40815;SDS011;26535;48.788;9.214;2023-06-22T10:34:49;11.63;;;4.88;;
40815;SDS011;26535;48.788;9.214;2023-06-22T10:37:15;10.38;;;4.30;;
40815;SDS011;26535;48.788;9.214;2023-06-22T10:39:41;9.80;;;4.38;;
40815;SDS011;26535;48.788;9.214;2023-06-22T10:42:07;22.88;;;15.40;;
40815;SDS011;26535;48.788;9.214;2023-06-22T10:44:32;12.68;;;4.88;;
40815;SDS011;26535;48.788;9.214;2023-06-22T10:46:58;14.23;;;5.75;;
40815;SDS011;26535;48.788;9.214;2023-06-22T10:49:24;14.65;;;4.82;;
40815;SDS011;26535;48.788;9.214;2023-06-22T10:51:50;15.98;;;10.25;;
40815;SDS011;26535;48.788;9.214;2023-06-22T10:54:15;11.18;;;4.65;;
40815;SDS011;26535;48.788;9.214;2023-06-22T10:56:43;15.07;;;5.00;;
40815;SDS011;26535;48.788;9.214;2023-06-22T10:59:09;10.60;;;4.40;;
40815;SDS011;26535;48.788;9.214;2023-06-22T11:01:34;7.47;;;4.10;;
40815;SDS011;26535;48.788;9.214;2023-06-22T11:04:02;10.43;;;4.30;;
40815;SDS011;26535;48.788;9.214;2023-06-22T11:06:28;11.43;;;4.78;;
40815;SDS011;26535;48.788;9.214;2023-06-22T11:08:54;12.48;;;4.20;;
40815;SDS011;26535;48.788;9.214;2023-06-22T11:11:20;10.98;;;4.40;;
40815;SDS011;26535;48.788;9.214;2023-06-22T11:13:45;11.27;;;4.60;;
40815;SDS011;26535;48.788;9.214;2023-06-22T11:16:11;11.05;;;4.78;;
40815;SDS011;26535;48.788;9.214;2023-06-22T11:18:37;12.25;;;4.60;;
40815;SDS011;26535;48.788;9.214;2023-06-22T11:21:02;10.68;;;4.85;;
40815;SDS011;26535;48.788;9.214;2023-06-22T11:23:28;12.07;;;4.00;;
40815;SDS011;26535;48.788;9.214;2023-06-22T11:25:54;13.23;;;4.40;;
40815;SDS011;26535;48.788;9.214;2023-06-22T11:28:20;11.40;;;4.57;;
40815;SDS011;26535;48.788;9.214;2023-06-22T11:30:46;14.75;;;7.55;;
40815;SDS011;26535;48.788;9.214;2023-06-22T11:33:11;12.80;;;4.53;;
40815;SDS011;26535;48.788;9.214;2023-06-22T11:35:37;10.63;;;4.95;;
40815;SDS011;26535;48.788;9.214;2023-06-22T11:38:03;10.07;;;4.65;;
40815;SDS011;26535;48.788;9.214;2023-06-22T11:40:30;10.50;;;5.55;;
40815;SDS011;26535;48.788;9.214;2023-06-22T11:42:56;13.07;;;7.07;;
40815;SDS011;26535;48.788;9.214;2023-06-22T11:45:21;9.93;;;6.18;;
40815;SDS011;26535;48.788;9.214;2023-06-22T11:47:47;11.73;;;4.90;;
40815;SDS011;26535;48.788;9.214;2023-06-22T11:50:13;12.88;;;5.05;;
40815;SDS011;26535;48.788;9.214;2023-06-22T11:52:39;9.98;;;4.40;;
40815;SDS011;26535;48.788;9.214;2023-06-22T11:55:05;11.35;;;4.72;;
40815;SDS011;26535;48.788;9.214;2023-06-22T11:57:38;8.63;;;4.32;;
40815;SDS011;26535;48.788;9.214;2023-06-22T12:00:16;11.73;;;4.40;;
40815;SDS011;26535;48.788;9.214;2023-06-22T12:02:43;10.20;;;4.60;;
40815;SDS011;26535;48.788;9.214;2023-06-22T12:05:10;12.98;;;4.85;;
40815;SDS011;26535;48.788;9.214;2023-06-22T12:07:36;11.75;;;4.70;;
40815;SDS011;26535;48.788;9.214;2023-06-22T12:10:02;17.70;;;5.05;;
40815;SDS011;26535;48.788;9.214;2023-06-22T12:12:29;10.38;;;4.60;;
40815;SDS011;26535;48.788;9.214;2023-06-22T12:14:54;11.32;;;5.05;;
40815;SDS011;26535;48.788;9.214;2023-06-22T12:17:20;10.73;;;4.50;;
40815;SDS011;26535;48.788;9.214;2023-06-22T12:19:46;12.10;;;4.65;;
40815;SDS011;26535;48.788;9.214;2023-06-22T12:22:11;13.85;;;4.20;;
40815;SDS011;26535;48.788;9.214;2023-06-22T12:24:37;9.48;;;4.40;;
40815;SDS011;26535;48.788;9.214;2023-06-22T12:27:12;9.45;;;4.30;;
40815;SDS011;26535;48.788;9.214;2023-06-22T12:29:38;12.02;;;4.28;;
40815;SDS011;26535;48.788;9.214;2023-06-22T12:32:04;10.40;;;4.25;;
40815;SDS011;26535;48.788;9.214;2023-06-22T12:34:30;13.05;;;4.80;;
40815;SDS011;26535;48.788;9.214;2023-06-22T12:36:55;9.60;;;4.63;;
40815;SDS011;26535;48.788;9.214;2023-06-22T12:39:21;11.05;;;4.05;;
40815;SDS011;26535;48.788;9.214;2023-06-22T12:41:47;10.75;;;4.65;;
40815;SDS011;26535;48.788;9.214;2023-06-22T12:44:12;10.38;;;4.43;;
40815;SDS011;26535;48.788;9.214;2023-06-22T12:46:38;13.13;;;4.20;;
40815;SDS011;26535;48.788;9.214;2023-06-22T12:49:04;8.60;;;4.80;;
40815;SDS011;26535;48.788;9.214;2023-06-22T12:51:30;10.70;;;4.45;;
40815;SDS011;26535;48.788;9.214;2023-06-22T12:53:56;12.60;;;4.53;;
40815;SDS011;26535;48.788;9.214;2023-06-22T12:56:22;12.27;;;5.00;;
40815;SDS011;26535;48.788;9.214;2023-06-22T12:58:48;11.57;;;5.07;;
40815;SDS011;26535;48.788;9.214;2023-06-22T13:01:13;11.85;;;4.93;;
40815;SDS011;26535;48.788;9.214;2023-06-22T13:03:40;12.38;;;4.43;;
40815;SDS011;26535;48.788;9.214;2023-06-22T13:06:06;12.25;;;5.03;;
40815;SDS011;26535;48.788;9.214;2023-06-22T13:08:32;8.13;;;4.15;;
40815;SDS011;26535;48.788;9.214;2023-06-22T13:10:58;11.55;;;5.22;;
40815;SDS011;26535;48.788;9.214;2023-06-22T13:13:24;12.75;;;5.22;;
40815;SDS011;26535;48.788;9.214;2023-06-22T13:15:52;9.85;;;4.82;;
40815;SDS011;26535;48.788;9.214;2023-06-22T13:18:19;15.32;;;4.97;;
40815;SDS011;26535;48.788;9.214;2023-06-22T13:20:45;10.55;;;4.72;;
40815;SDS011;26535;48.788;9.214;2023-06-22T13:23:11;11.95;;;4.50;;
40815;SDS011;26535;48.788;9.214;2023-06-22T13:25:37;12.20;;;5.22;;
40815;SDS011;26535;48.788;9.214;2023-06-22T13:28:03;9.07;;;4.55;;
40815;SDS011;26535;48.788;9.214;2023-06-22T13:30:29;10.85;;;4.57;;
40815;SDS011;26535;48.788;9.214;2023-06-22T13:32:55;9.25;;;4.97;;
40815;SDS011;26535;48.788;9.214;2023-06-22T13:35:21;10.85;;;4.53;;
40815;SDS011;26535;48.788;9.214;2023-06-22T13:37:47;10.77;;;5.25;;
40815;SDS011;26535;48.788;9.214;2023-06-22T13:40:12;13.80;;;4.90;;
40815;SDS011;26535;48.788;9.214;2023-06-22T13:42:38;13.38;;;4.97;;
40815;SDS011;26535;48.788;9.214;2023-06-22T13:45:04;7.97;;;4.20;;
40815;SDS011;26535;48.788;9.214;2023-06-22T13:47:31;10.25;;;5.18;;
40815;SDS011;26535;48.788;9.214;2023-06-22T13:49:57;10.77;;;4.95;;
40815;SDS011;26535;48.788;9.214;2023-06-22T13:52:23;9.15;;;4.05;;
40815;SDS011;26535;48.788;9.214;2023-06-22T13:54:49;9.10;;;4.20;;
40815;SDS011;26535;48.788;9.214;2023-06-22T13:57:14;11.68;;;5.03;;
40815;SDS011;26535;48.788;9.214;2023-06-22T13:59:40;17.63;;;4.25;;
40815;SDS011;26535;48.788;9.214;2023-06-22T14:02:06;10.75;;;4.60;;
40815;SDS011;26535;48.788;9.214;2023-06-22T14:04:32;11.63;;;4.55;;
40815;SDS011;26535;48.788;9.214;2023-06-22T14:06:58;9.73;;;4.40;;
40815;SDS011;26535;48.788;9.214;2023-06-22T14:09:24;10.43;;;4.60;;
40815;SDS011;26535;48.788;9.214;2023-06-22T14:11:50;10.13;;;3.97;;
40815;SDS011;26535;48.788;9.214;2023-06-22T14:14:16;9.07;;;4.25;;
40815;SDS011;26535;48.788;9.214;2023-06-22T14:16:41;12.77;;;4.82;;
40815;SDS011;26535;48.788;9.214;2023-06-22T14:19:07;13.23;;;4.20;;
40815;SDS011;26535;48.788;9.214;2023-06-22T14:21:33;13.30;;;3.97;;
40815;SDS011;26535;48.788;9.214;2023-06-22T14:23:58;9.43;;;4.22;;
40815;SDS011;26535;48.788;9.214;2023-06-22T14:26:24;8.10;;;3.65;;
40815;SDS011;26535;48.788;9.214;2023-06-22T14:28:50;8.95;;;4.10;;
40815;SDS011;26535;48.788;9.214;2023-06-22T14:31:16;9.43;;;4.30;;
40815;SDS011;26535;48.788;9.214;2023-06-22T14:33:46;9.98;;;4.13;;
40815;SDS011;26535;48.788;9.214;2023-06-22T14:36:13;10.05;;;3.97;;
40815;SDS011;26535;48.788;9.214;2023-06-22T14:38:39;9.30;;;4.18;;
40815;SDS011;26535;48.788;9.214;2023-06-22T14:41:05;10.77;;;3.53;;
40815;SDS011;26535;48.788;9.214;2023-06-22T14:43:31;14.18;;;4.15;;
40815;SDS011;26535;48.788;9.214;2023-06-22T14:45:56;10.10;;;3.33;;
40815;SDS011;26535;48.788;9.214;2023-06-22T14:48:22;6.95;;;3.30;;
40815;SDS011;26535;48.788;9.214;2023-06-22T14:50:48;9.05;;;3.40;;
40815;SDS011;26535;48.788;9.214;2023-06-22T14:53:14;12.35;;;4.13;;
40815;SDS011;26535;48.788;9.214;2023-06-22T14:55:40;8.73;;;3.63;;
40815;SDS011;26535;48.788;9.214;2023-06-22T14:58:06;8.98;;;3.13;;
40815;SDS011;26535;48.788;9.214;2023-06-22T15:00:31;10.25;;;3.60;;
40815;SDS011;26535;48.788;9.214;2023-06-22T15:02:57;12.85;;;3.50;;
40815;SDS011;26535;48.788;9.214;2023-06-22T15:05:24;7.72;;;3.17;;
40815;SDS011;26535;48.788;9.214;2023-06-22T15:07:50;10.60;;;3.28;;
40815;SDS011;26535;48.788;9.214;2023-06-22T15:10:16;9.25;;;2.83;;
40815;SDS011;26535;48.788;9.214;2023-06-22T15:12:42;11.65;;;2.90;;
40815;SDS011;26535;48.788;9.214;2023-06-22T15:15:08;10.60;;;3.08;;
40815;SDS011;26535;48.788;9.214;2023-06-22T15:17:34;9.07;;;2.70;;
40815;SDS011;26535;48.788;9.214;2023-06-22T15:19:59;9.25;;;2.47;;
40815;SDS011;26535;48.788;9.214;2023-06-22T15:22:25;9.88;;;2.70;;
40815;SDS011;26535;48.788;9.214;2023-06-22T15:24:51;8.07;;;2.65;;
40815;SDS011;26535;48.788;9.214;2023-06-22T15:29:45;12.15;;;2.90;;
40815;SDS011;26535;48.788;9.214;2023-06-22T15:32:11;7.07;;;2.58;;
40815;SDS011;26535;48.788;9.214;2023-06-22T15:34:37;8.15;;;2.65;;
40815;SDS011;26535;48.788;9.214;2023-06-22T15:37:03;7.22;;;2.97;;
40815;SDS011;26535;48.788;9.214;2023-06-22T15:39:29;12.13;;;3.17;;
40815;SDS011;26535;48.788;9.214;2023-06-22T15:41:55;10.27;;;2.92;;
40815;SDS011;26535;48.788;9.214;2023-06-22T15:44:22;10.75;;;2.80;;
40815;SDS011;26535;48.788;9.214;2023-06-22T15:46:48;10.45;;;2.38;;
40815;SDS011;26535;48.788;9.214;2023-06-22T15:49:14;9.43;;;2.35;;
40815;SDS011;26535;48.788;9.214;2023-06-22T15:51:40;11.55;;;2.70;;
40815;SDS011;26535;48.788;9.214;2023-06-22T15:54:06;7.88;;;2.78;;
40815;SDS011;26535;48.788;9.214;2023-06-22T15:56:32;11.07;;;2.70;;
40815;SDS011;26535;48.788;9.214;2023-06-22T15:58:57;10.27;;;2.72;;
40815;SDS011;26535;48.788;9.214;2023-06-22T16:01:23;8.07;;;2.60;;
40815;SDS011;26535;48.788;9.214;2023-06-22T16:03:49;11.30;;;2.45;;
40815;SDS011;26535;48.788;9.214;2023-06-22T16:06:15;9.18;;;2.65;;
40815;SDS011;26535;48.788;9.214;2023-06-22T16:08:41;8.70;;;2.85;;
40815;SDS011;26535;48.788;9.214;2023-06-22T16:11:07;10.98;;;2.97;;
40815;SDS011;26535;48.788;9.214;2023-06-22T16:13:33;11.13;;;2.67;;
40815;SDS011;26535;48.788;9.214;2023-06-22T16:15:58;10.18;;;2.90;;
40815;SDS011;26535;48.788;9.214;2023-06-22T16:18:24;8.15;;;3.00;;
40815;SDS011;26535;48.788;9.214;2023-06-22T16:20:50;9.57;;;3.17;;
40815;SDS011;26535;48.788;9.214;2023-06-22T16:23:16;10.88;;;2.92;;
40815;SDS011;26535;48.788;9.214;2023-06-22T16:25:44;11.05;;;2.72;;
40815;SDS011;26535;48.788;9.214;2023-06-22T16:28:10;7.03;;;2.60;;
40815;SDS011;26535;48.788;9.214;2023-06-22T16:30:36;10.30;;;3.35;;
40815;SDS011;26535;48.788;9.214;2023-06-22T16:33:02;9.82;;;2.70;;
40815;SDS011;26535;48.788;9.214;2023-06-22T16:35:28;7.07;;;2.70;;
40815;SDS011;26535;48.788;9.214;2023-06-22T16:37:54;10.07;;;2.70;;
40815;SDS011;26535;48.788;9.214;2023-06-22T16:40:20;10.05;;;2.58;;
40815;SDS011;26535;48.788;9.214;2023-06-22T16:42:47;11.80;;;3.17;;
40815;SDS011;26535;48.788;9.214;2023-06-22T16:45:16;10.07;;;3.08;;
40815;SDS011;26535;48.788;9.214;2023-06-22T16:47:42;11.77;;;2.95;;
40815;SDS011;26535;48.788;9.214;2023-06-22T16:50:10;8.38;;;2.60;;
40815;SDS011;26535;48.788;9.214;2023-06-22T16:52:36;13.23;;;3.10;;
40815;SDS011;26535;48.788;9.214;2023-06-22T16:55:03;8.98;;;3.38;;
40815;SDS011;26535;48.788;9.214;2023-06-22T16:57:30;10.23;;;2.60;;
40815;SDS011;26535;48.788;9.214;2023-06-22T16:59:56;7.95;;;3.22;;
40815;SDS011;26535;48.788;9.214;2023-06-22T17:02:22;8.85;;;2.78;;
40815;SDS011;26535;48.788;9.214;2023-06-22T17:04:52;7.47;;;2.47;;
40815;SDS011;26535;48.788;9.214;2023-06-22T17:07:20;11.05;;;3.08;;
40815;SDS011;26535;48.788;9.214;2023-06-22T17:09:48;8.95;;;2.65;;
40815;SDS011;26535;48.788;9.214;2023-06-22T17:12:14;12.25;;;3.78;;
40815;SDS011;26535;48.788;9.214;2023-06-22T17:14:43;8.73;;;2.75;;
40815;SDS011;26535;48.788;9.214;2023-06-22T17:17:13;7.72;;;2.72;;
40815;SDS011;26535;48.788;9.214;2023-06-22T17:19:47;8.57;;;2.85;;
40815;SDS011;26535;48.788;9.214;2023-06-22T17:22:12;8.93;;;2.95;;
40815;SDS011;26535;48.788;9.214;2023-06-22T17:24:39;10.00;;;3.10;;
40815;SDS011;26535;48.788;9.214;2023-06-22T17:27:05;9.00;;;2.65;;
40815;SDS011;26535;48.788;9.214;2023-06-22T17:29:32;9.18;;;2.70;;
40815;SDS011;26535;48.788;9.214;2023-06-22T17:32:01;9.30;;;2.75;;
40815;SDS011;26535;48.788;9.214;2023-06-22T17:34:28;11.93;;;2.80;;
40815;SDS011;26535;48.788;9.214;2023-06-22T17:36:55;9.45;;;2.95;;
40815;SDS011;26535;48.788;9.214;2023-06-22T17:39:22;7.72;;;2.20;;
40815;SDS011;26535;48.788;9.214;2023-06-22T17:41:49;10.23;;;2.60;;
40815;SDS011;26535;48.788;9.214;2023-06-22T17:46:44;6.85;;;2.00;;
40815;SDS011;26535;48.788;9.214;2023-06-22T17:49:10;8.68;;;2.38;;
40815;SDS011;26535;48.788;9.214;2023-06-22T17:51:41;8.07;;;2.67;;
40815;SDS011;26535;48.788;9.214;2023-06-22T17:54:07;13.32;;;2.25;;
40815;SDS011;26535;48.788;9.214;2023-06-22T17:56:33;5.35;;;2.13;;
40815;SDS011;26535;48.788;9.214;2023-06-22T17:59:00;11.00;;;2.22;;
40815;SDS011;26535;48.788;9.214;2023-06-22T18:01:38;9.70;;;2.20;;
40815;SDS011;26535;48.788;9.214;2023-06-22T18:04:14;11.52;;;2.85;;
40815;SDS011;26535;48.788;9.214;2023-06-22T18:06:43;8.88;;;2.33;;
40815;SDS011;26535;48.788;9.214;2023-06-22T18:09:11;8.10;;;3.10;;
40815;SDS011;26535;48.788;9.214;2023-06-22T18:11:45;6.57;;;2.10;;
40815;SDS011;26535;48.788;9.214;2023-06-22T18:14:13;7.18;;;2.35;;
40815;SDS011;26535;48.788;9.214;2023-06-22T18:16:42;7.22;;;2.50;;
40815;SDS011;26535;48.788;9.214;2023-06-22T18:19:10;6.65;;;2.15;;
40815;SDS011;26535;48.788;9.214;2023-06-22T18:21:39;8.10;;;2.30;;
40815;SDS011;26535;48.788;9.214;2023-06-22T18:24:05;8.82;;;2.13;;
40815;SDS011;26535;48.788;9.214;2023-06-22T18:26:31;7.57;;;2.15;;
40815;SDS011;26535;48.788;9.214;2023-06-22T18:28:57;8.13;;;2.17;;
40815;SDS011;26535;48.788;9.214;2023-06-22T18:31:24;10.02;;;2.25;;
40815;SDS011;26535;48.788;9.214;2023-06-22T18:33:54;8.32;;;2.55;;
40815;SDS011;26535;48.788;9.214;2023-06-22T18:38:51;7.20;;;2.35;;
40815;SDS011;26535;48.788;9.214;2023-06-22T18:41:32;6.70;;;2.28;;
40815;SDS011;26535;48.788;9.214;2023-06-22T18:44:03;4.78;;;1.55;;
40815;SDS011;26535;48.788;9.214;2023-06-22T18:46:36;9.07;;;2.05;;
40815;SDS011;26535;48.788;9.214;2023-06-22T18:49:08;5.63;;;1.95;;
40815;SDS011;26535;48.788;9.214;2023-06-22T18:51:50;5.60;;;1.88;;
40815;SDS011;26535;48.788;9.214;2023-06-22T18:54:25;8.73;;;1.92;;
40815;SDS011;26535;48.788;9.214;2023-06-22T19:05:05;5.80;;;1.73;;
40815;SDS011;26535;48.788;9.214;2023-06-22T19:15:52;5.55;;;1.80;;
40815;SDS011;26535;48.788;9.214;2023-06-22T19:18:25;6.45;;;2.00;;
40815;SDS011;26535;48.788;9.214;2023-06-22T19:21:01;7.53;;;2.00;;
40815;SDS011;26535;48.788;9.214;2023-06-22T19:25:59;7.28;;;1.73;;
40815;SDS011;26535;48.788;9.214;2023-06-22T19:28:30;9.60;;;2.23;;
40815;SDS011;26535;48.788;9.214;2023-06-22T19:30:57;5.72;;;2.10;;
40815;SDS011;26535;48.788;9.214;2023-06-22T19:33:24;5.80;;;1.90;;
40815;SDS011;26535;48.788;9.214;2023-06-22T19:35:56;7.68;;;2.30;;
40815;SDS011;26535;48.788;9.214;2023-06-22T19:38:24;6.50;;;2.03;;
40815;SDS011;26535;48.788;9.214;2023-06-22T19:40:51;5.25;;;1.65;;
40815;SDS011;26535;48.788;9.214;2023-06-22T19:43:18;5.82;;;2.22;;
40815;SDS011;26535;48.788;9.214;2023-06-22T19:45:45;6.82;;;2.53;;
40815;SDS011;26535;48.788;9.214;2023-06-22T19:48:14;7.97;;;2.10;;
40815;SDS011;26535;48.788;9.214;2023-06-22T19:50:41;5.53;;;2.10;;
40815;SDS011;26535;48.788;9.214;2023-06-22T19:53:13;7.38;;;2.33;;
40815;SDS011;26535;48.788;9.214;2023-06-22T19:55:40;5.78;;;2.28;;
40815;SDS011;26535;48.788;9.214;2023-06-22T19:58:07;6.97;;;2.10;;
40815;SDS011;26535;48.788;9.214;2023-06-22T20:00:34;6.17;;;2.50;;
40815;SDS011;26535;48.788;9.214;2023-06-22T20:03:00;7.90;;;2.53;;
40815;SDS011;26535;48.788;9.214;2023-06-22T20:05:27;9.18;;;2.55;;